Terminal Aerodrome Forecast
Issued by NWS

Home | Current Version | Previous Version | Text Only | Print | Product List | Glossary On
Versions: 1 2 3 4 5 6 7 8 9 10 11 12 13 14 15 16 17 18 19 20 21 22 23 24
000
FTUS44 KOUN 021739
TAFCSM
TAF
KCSM 021739Z 0218/0318 20012KT P6SM FEW060 OVC250
      TEMPO 0218/0220 6SM -SHRA BKN050 OVC250
     FM030100 VRB05KT P6SM BKN060 BKN200 PROB30 0305/0311 5SM -TSRA
      BKN050CB OVC200
     FM031600 01007KT P6SM SCT050=

USA.gov is the U.S. government's official web portal to all federal, state and local government web resources and services.